sensor_id;sensor_type;location;lat;lon;timestamp;pressure;altitude;pressure_sealevel;temperature;humidity
28797;BME280;24974;54.444;18.560;2024-01-16T00:02:23;99133.88;;;0.62;50.79
28797;BME280;24974;54.444;18.560;2024-01-16T00:04:54;99139.47;;;-0.18;52.04
28797;BME280;24974;54.444;18.560;2024-01-16T00:07:24;99127.44;;;-0.46;52.57
28797;BME280;24974;54.444;18.560;2024-01-16T00:09:56;99143.31;;;-0.34;51.29
28797;BME280;24974;54.444;18.560;2024-01-16T00:12:27;99158.81;;;-0.75;52.49
28797;BME280;24974;54.444;18.560;2024-01-16T00:14:57;99161.81;;;-1.28;53.06
28797;BME280;24974;54.444;18.560;2024-01-16T00:17:28;99158.56;;;-0.99;52.32
28797;BME280;24974;54.444;18.560;2024-01-16T00:19:59;99174.22;;;0.04;50.07
28797;BME280;24974;54.444;18.560;2024-01-16T00:22:31;99174.31;;;-0.21;51.62
28797;BME280;24974;54.444;18.560;2024-01-16T00:25:02;99179.09;;;0.02;50.24
28797;BME280;24974;54.444;18.560;2024-01-16T00:27:33;99188.88;;;0.42;49.04
28797;BME280;24974;54.444;18.560;2024-01-16T00:30:05;99194.81;;;-0.15;51.24
28797;BME280;24974;54.444;18.560;2024-01-16T00:32:37;99205.75;;;-0.71;51.74
28797;BME280;24974;54.444;18.560;2024-01-16T00:35:09;99204.63;;;-0.45;51.21
28797;BME280;24974;54.444;18.560;2024-01-16T00:37:40;99200.03;;;-0.65;52.88
28797;BME280;24974;54.444;18.560;2024-01-16T00:40:11;99211.75;;;0.06;52.37
28797;BME280;24974;54.444;18.560;2024-01-16T00:42:42;99210.88;;;0.20;50.83
28797;BME280;24974;54.444;18.560;2024-01-16T00:45:13;99221.91;;;0.34;52.26
28797;BME280;24974;54.444;18.560;2024-01-16T00:47:44;99227.69;;;0.62;50.95
28797;BME280;24974;54.444;18.560;2024-01-16T00:50:15;99228.34;;;0.43;51.77
28797;BME280;24974;54.444;18.560;2024-01-16T00:52:46;99228.63;;;-0.48;53.42
28797;BME280;24974;54.444;18.560;2024-01-16T00:55:16;99221.22;;;-0.02;52.84
28797;BME280;24974;54.444;18.560;2024-01-16T00:57:47;99225.41;;;0.79;51.20
28797;BME280;24974;54.444;18.560;2024-01-16T01:00:18;99239.03;;;0.04;52.37
28797;BME280;24974;54.444;18.560;2024-01-16T01:02:49;99248.34;;;-0.68;54.09
28797;BME280;24974;54.444;18.560;2024-01-16T01:05:20;99246.66;;;-0.13;52.82
28797;BME280;24974;54.444;18.560;2024-01-16T01:07:51;99248.28;;;-0.12;52.11
28797;BME280;24974;54.444;18.560;2024-01-16T01:10:22;99242.09;;;-0.33;51.90
28797;BME280;24974;54.444;18.560;2024-01-16T01:12:53;99246.44;;;-0.37;52.24
28797;BME280;24974;54.444;18.560;2024-01-16T01:15:24;99252.78;;;0.08;52.39
28797;BME280;24974;54.444;18.560;2024-01-16T01:17:54;99260.97;;;-0.13;52.18
28797;BME280;24974;54.444;18.560;2024-01-16T01:20:25;99261.28;;;-0.45;53.27
28797;BME280;24974;54.444;18.560;2024-01-16T01:22:57;99264.00;;;-0.70;52.79
28797;BME280;24974;54.444;18.560;2024-01-16T01:25:28;99258.28;;;-0.23;51.95
28797;BME280;24974;54.444;18.560;2024-01-16T01:28:00;99267.69;;;-0.05;51.62
28797;BME280;24974;54.444;18.560;2024-01-16T01:30:31;99259.41;;;-0.65;52.30
28797;BME280;24974;54.444;18.560;2024-01-16T01:33:03;99277.91;;;0.18;51.03
28797;BME280;24974;54.444;18.560;2024-01-16T01:35:34;99280.69;;;-0.22;51.79
28797;BME280;24974;54.444;18.560;2024-01-16T01:38:05;99285.03;;;-0.37;52.79
28797;BME280;24974;54.444;18.560;2024-01-16T01:40:38;99286.66;;;-0.31;51.45
28797;BME280;24974;54.444;18.560;2024-01-16T01:43:24;99292.50;;;0.07;52.27
28797;BME280;24974;54.444;18.560;2024-01-16T01:48:40;99306.88;;;-0.84;52.39
28797;BME280;24974;54.444;18.560;2024-01-16T01:51:13;99313.06;;;-0.07;51.67
28797;BME280;24974;54.444;18.560;2024-01-16T01:53:45;99318.75;;;-0.49;52.18
28797;BME280;24974;54.444;18.560;2024-01-16T01:56:18;99324.66;;;-1.03;52.28
28797;BME280;24974;54.444;18.560;2024-01-16T01:58:53;99335.75;;;-0.13;52.17
28797;BME280;24974;54.444;18.560;2024-01-16T02:01:25;99330.66;;;-0.30;51.95
28797;BME280;24974;54.444;18.560;2024-01-16T02:03:59;99334.41;;;-0.57;51.40
28797;BME280;24974;54.444;18.560;2024-01-16T02:06:30;99336.84;;;-0.24;51.20
28797;BME280;24974;54.444;18.560;2024-01-16T02:09:00;99337.63;;;-0.85;51.66
28797;BME280;24974;54.444;18.560;2024-01-16T02:11:31;99342.53;;;-0.72;51.83
28797;BME280;24974;54.444;18.560;2024-01-16T02:14:02;99345.22;;;-0.72;51.48
28797;BME280;24974;54.444;18.560;2024-01-16T02:16:51;99351.69;;;-0.63;52.27
28797;BME280;24974;54.444;18.560;2024-01-16T02:19:22;99344.34;;;-1.03;52.63
28797;BME280;24974;54.444;18.560;2024-01-16T02:21:59;99352.34;;;-1.33;51.72
28797;BME280;24974;54.444;18.560;2024-01-16T02:24:30;99350.78;;;-1.77;53.61
28797;BME280;24974;54.444;18.560;2024-01-16T02:27:01;99364.84;;;-0.97;51.27
28797;BME280;24974;54.444;18.560;2024-01-16T02:29:33;99356.00;;;-0.77;51.01
28797;BME280;24974;54.444;18.560;2024-01-16T02:32:04;99360.50;;;-1.76;53.05
28797;BME280;24974;54.444;18.560;2024-01-16T02:34:35;99363.94;;;-1.33;52.42
28797;BME280;24974;54.444;18.560;2024-01-16T02:37:05;99364.84;;;-0.97;52.00
28797;BME280;24974;54.444;18.560;2024-01-16T02:39:36;99364.06;;;-0.92;51.65
28797;BME280;24974;54.444;18.560;2024-01-16T02:42:07;99373.88;;;-1.44;52.72
28797;BME280;24974;54.444;18.560;2024-01-16T02:44:39;99377.69;;;-1.24;51.50
28797;BME280;24974;54.444;18.560;2024-01-16T02:47:10;99381.59;;;-0.95;50.91
28797;BME280;24974;54.444;18.560;2024-01-16T02:49:41;99393.75;;;-0.77;50.57
28797;BME280;24974;54.444;18.560;2024-01-16T02:52:12;99395.56;;;-1.65;52.46
28797;BME280;24974;54.444;18.560;2024-01-16T02:54:43;99392.97;;;-1.45;52.53
28797;BME280;24974;54.444;18.560;2024-01-16T02:57:14;99402.03;;;-1.61;51.99
28797;BME280;24974;54.444;18.560;2024-01-16T02:59:45;99416.00;;;-1.70;52.75
28797;BME280;24974;54.444;18.560;2024-01-16T03:02:16;99416.81;;;-1.17;51.17
28797;BME280;24974;54.444;18.560;2024-01-16T03:04:47;99423.19;;;-1.38;51.61
28797;BME280;24974;54.444;18.560;2024-01-16T03:07:18;99423.94;;;-0.85;50.78
28797;BME280;24974;54.444;18.560;2024-01-16T03:09:49;99427.34;;;-1.62;52.58
28797;BME280;24974;54.444;18.560;2024-01-16T03:12:20;99429.28;;;-1.95;52.29
28797;BME280;24974;54.444;18.560;2024-01-16T03:14:51;99429.16;;;-1.31;51.27
28797;BME280;24974;54.444;18.560;2024-01-16T03:17:23;99430.59;;;-1.65;51.06
28797;BME280;24974;54.444;18.560;2024-01-16T03:19:54;99432.56;;;-1.51;51.62
28797;BME280;24974;54.444;18.560;2024-01-16T03:22:25;99441.53;;;-1.35;51.64
28797;BME280;24974;54.444;18.560;2024-01-16T03:24:56;99437.38;;;-1.53;50.36
28797;BME280;24974;54.444;18.560;2024-01-16T03:27:27;99437.66;;;-1.02;50.44
28797;BME280;24974;54.444;18.560;2024-01-16T03:29:58;99445.16;;;-1.09;51.11
28797;BME280;24974;54.444;18.560;2024-01-16T03:32:29;99452.91;;;-1.70;50.93
28797;BME280;24974;54.444;18.560;2024-01-16T03:35:00;99461.22;;;-1.29;50.74
28797;BME280;24974;54.444;18.560;2024-01-16T03:37:31;99447.25;;;-1.26;50.47
28797;BME280;24974;54.444;18.560;2024-01-16T03:40:03;99458.91;;;-1.95;51.92
28797;BME280;24974;54.444;18.560;2024-01-16T03:42:34;99461.03;;;-1.65;51.69
28797;BME280;24974;54.444;18.560;2024-01-16T03:45:06;99469.28;;;-1.77;51.50
28797;BME280;24974;54.444;18.560;2024-01-16T03:47:37;99468.91;;;-2.22;52.51
28797;BME280;24974;54.444;18.560;2024-01-16T03:50:08;99470.41;;;-1.73;51.65
28797;BME280;24974;54.444;18.560;2024-01-16T03:52:39;99472.16;;;-0.99;50.37
28797;BME280;24974;54.444;18.560;2024-01-16T03:55:10;99478.38;;;-0.98;50.56
28797;BME280;24974;54.444;18.560;2024-01-16T03:57:41;99484.66;;;-1.30;50.74
28797;BME280;24974;54.444;18.560;2024-01-16T04:00:13;99486.19;;;-1.49;51.91
28797;BME280;24974;54.444;18.560;2024-01-16T04:02:44;99506.09;;;-0.40;49.64
28797;BME280;24974;54.444;18.560;2024-01-16T04:05:15;99502.09;;;-1.00;50.73
28797;BME280;24974;54.444;18.560;2024-01-16T04:07:46;99491.44;;;-1.27;51.18
28797;BME280;24974;54.444;18.560;2024-01-16T04:10:17;99503.72;;;-1.47;51.78
28797;BME280;24974;54.444;18.560;2024-01-16T04:12:48;99497.66;;;-1.27;51.11
28797;BME280;24974;54.444;18.560;2024-01-16T04:15:18;99504.69;;;-1.95;52.25
28797;BME280;24974;54.444;18.560;2024-01-16T04:17:49;99508.28;;;-1.00;49.58
28797;BME280;24974;54.444;18.560;2024-01-16T04:20:20;99510.84;;;-1.25;51.63
28797;BME280;24974;54.444;18.560;2024-01-16T04:22:51;99509.53;;;-1.97;51.87
28797;BME280;24974;54.444;18.560;2024-01-16T04:25:22;99513.28;;;-1.66;51.34
28797;BME280;24974;54.444;18.560;2024-01-16T04:27:53;99515.41;;;-0.78;49.82
28797;BME280;24974;54.444;18.560;2024-01-16T04:30:24;99524.31;;;-1.67;50.76
28797;BME280;24974;54.444;18.560;2024-01-16T04:32:55;99530.59;;;-1.20;49.91
28797;BME280;24974;54.444;18.560;2024-01-16T04:35:25;99539.00;;;-1.06;49.76
28797;BME280;24974;54.444;18.560;2024-01-16T04:37:56;99547.78;;;-1.63;50.13
28797;BME280;24974;54.444;18.560;2024-01-16T04:40:27;99546.75;;;-1.57;49.30
28797;BME280;24974;54.444;18.560;2024-01-16T04:42:58;99542.28;;;-2.05;50.15
28797;BME280;24974;54.444;18.560;2024-01-16T04:45:29;99545.47;;;-1.49;49.41
28797;BME280;24974;54.444;18.560;2024-01-16T04:48:00;99552.50;;;-2.07;50.59
28797;BME280;24974;54.444;18.560;2024-01-16T04:50:31;99558.88;;;-1.86;50.76
28797;BME280;24974;54.444;18.560;2024-01-16T04:53:02;99564.31;;;-1.12;48.72
28797;BME280;24974;54.444;18.560;2024-01-16T04:55:33;99560.69;;;-0.80;48.24
28797;BME280;24974;54.444;18.560;2024-01-16T04:58:05;99556.06;;;-0.95;47.53
28797;BME280;24974;54.444;18.560;2024-01-16T05:00:36;99559.47;;;-1.52;48.59
28797;BME280;24974;54.444;18.560;2024-01-16T05:03:07;99573.59;;;-1.35;49.23
28797;BME280;24974;54.444;18.560;2024-01-16T05:05:38;99576.75;;;-1.06;48.50
28797;BME280;24974;54.444;18.560;2024-01-16T05:08:09;99576.41;;;-1.20;48.67
28797;BME280;24974;54.444;18.560;2024-01-16T05:10:40;99584.94;;;-1.33;48.95
28797;BME280;24974;54.444;18.560;2024-01-16T05:13:10;99583.91;;;-1.27;48.78
28797;BME280;24974;54.444;18.560;2024-01-16T05:15:42;99589.41;;;-1.06;47.96
28797;BME280;24974;54.444;18.560;2024-01-16T05:18:13;99582.19;;;-1.38;48.53
28797;BME280;24974;54.444;18.560;2024-01-16T05:20:44;99597.41;;;-1.22;48.08
28797;BME280;24974;54.444;18.560;2024-01-16T05:23:15;99599.69;;;-1.73;48.95
28797;BME280;24974;54.444;18.560;2024-01-16T05:25:46;99606.38;;;-1.11;48.82
28797;BME280;24974;54.444;18.560;2024-01-16T05:28:17;99609.16;;;-2.19;50.01
28797;BME280;24974;54.444;18.560;2024-01-16T05:30:48;99607.03;;;-1.36;48.73
28797;BME280;24974;54.444;18.560;2024-01-16T05:33:19;99616.78;;;-0.88;47.50
28797;BME280;24974;54.444;18.560;2024-01-16T05:35:50;99614.38;;;-1.26;48.42
28797;BME280;24974;54.444;18.560;2024-01-16T05:38:21;99603.91;;;-1.82;48.97
28797;BME280;24974;54.444;18.560;2024-01-16T05:40:52;99620.53;;;-0.89;47.83
28797;BME280;24974;54.444;18.560;2024-01-16T05:43:23;99610.06;;;-1.22;47.54
28797;BME280;24974;54.444;18.560;2024-01-16T05:45:54;99604.16;;;-0.19;45.83
28797;BME280;24974;54.444;18.560;2024-01-16T05:48:25;99612.81;;;-1.17;47.50
28797;BME280;24974;54.444;18.560;2024-01-16T05:50:56;99614.06;;;-1.89;49.28
28797;BME280;24974;54.444;18.560;2024-01-16T05:53:27;99616.78;;;-2.11;49.97
28797;BME280;24974;54.444;18.560;2024-01-16T05:55:57;99619.91;;;-1.38;48.68
28797;BME280;24974;54.444;18.560;2024-01-16T05:58:28;99624.28;;;-2.40;50.56
28797;BME280;24974;54.444;18.560;2024-01-16T06:00:59;99632.22;;;-1.52;49.33
28797;BME280;24974;54.444;18.560;2024-01-16T06:03:30;99630.41;;;-1.42;49.96
28797;BME280;24974;54.444;18.560;2024-01-16T06:06:01;99636.66;;;-1.68;49.96
28797;BME280;24974;54.444;18.560;2024-01-16T06:08:32;99634.38;;;-2.03;50.86
28797;BME280;24974;54.444;18.560;2024-01-16T06:11:02;99630.91;;;-1.45;50.67
28797;BME280;24974;54.444;18.560;2024-01-16T06:13:33;99639.56;;;-1.43;50.34
28797;BME280;24974;54.444;18.560;2024-01-16T06:16:06;99639.31;;;-1.41;51.83
28797;BME280;24974;54.444;18.560;2024-01-16T06:18:38;99644.16;;;-1.38;50.10
28797;BME280;24974;54.444;18.560;2024-01-16T06:21:09;99649.03;;;-1.67;51.91
28797;BME280;24974;54.444;18.560;2024-01-16T06:23:42;99660.25;;;-1.48;51.07
28797;BME280;24974;54.444;18.560;2024-01-16T06:26:13;99662.19;;;-1.71;51.71
28797;BME280;24974;54.444;18.560;2024-01-16T06:28:44;99659.78;;;-1.40;51.07
28797;BME280;24974;54.444;18.560;2024-01-16T06:31:16;99667.28;;;-1.74;50.66
28797;BME280;24974;54.444;18.560;2024-01-16T06:33:47;99665.72;;;-1.11;49.67
28797;BME280;24974;54.444;18.560;2024-01-16T06:36:21;99669.75;;;-1.41;49.71
28797;BME280;24974;54.444;18.560;2024-01-16T06:38:52;99668.03;;;-1.79;50.30
28797;BME280;24974;54.444;18.560;2024-01-16T06:41:23;99681.06;;;-0.74;50.00
28797;BME280;24974;54.444;18.560;2024-01-16T06:43:53;99679.25;;;-0.11;47.53
28797;BME280;24974;54.444;18.560;2024-01-16T06:46:24;99686.81;;;-1.30;48.65
28797;BME280;24974;54.444;18.560;2024-01-16T06:48:56;99680.00;;;-1.37;48.99
28797;BME280;24974;54.444;18.560;2024-01-16T06:51:27;99697.13;;;-0.90;48.05
28797;BME280;24974;54.444;18.560;2024-01-16T06:53:58;99688.69;;;-1.03;48.22
28797;BME280;24974;54.444;18.560;2024-01-16T06:56:29;99700.97;;;-1.72;49.47
28797;BME280;24974;54.444;18.560;2024-01-16T06:59:00;99694.38;;;-1.00;48.56
28797;BME280;24974;54.444;18.560;2024-01-16T07:01:31;99704.19;;;-1.48;49.04
28797;BME280;24974;54.444;18.560;2024-01-16T07:04:02;99710.47;;;-0.78;47.70
28797;BME280;24974;54.444;18.560;2024-01-16T07:06:33;99716.28;;;-1.50;48.58
28797;BME280;24974;54.444;18.560;2024-01-16T07:09:03;99722.31;;;-1.65;48.93
28797;BME280;24974;54.444;18.560;2024-01-16T07:11:36;99729.34;;;-1.37;48.32
28797;BME280;24974;54.444;18.560;2024-01-16T07:14:09;99740.44;;;-1.33;48.46
28797;BME280;24974;54.444;18.560;2024-01-16T07:16:40;99744.78;;;-1.54;48.54
28797;BME280;24974;54.444;18.560;2024-01-16T07:19:11;99739.00;;;-1.41;47.99
28797;BME280;24974;54.444;18.560;2024-01-16T07:21:42;99753.25;;;-1.19;46.85
28797;BME280;24974;54.444;18.560;2024-01-16T07:24:15;99746.09;;;-1.35;47.57
28797;BME280;24974;54.444;18.560;2024-01-16T07:26:46;99758.94;;;-1.15;46.91
28797;BME280;24974;54.444;18.560;2024-01-16T07:29:16;99763.72;;;-0.95;46.94
28797;BME280;24974;54.444;18.560;2024-01-16T07:31:47;99773.31;;;-1.58;47.17
28797;BME280;24974;54.444;18.560;2024-01-16T07:34:18;99765.50;;;-1.06;46.39
28797;BME280;24974;54.444;18.560;2024-01-16T07:36:52;99775.66;;;-1.67;47.01
28797;BME280;24974;54.444;18.560;2024-01-16T07:39:24;99777.44;;;-0.97;47.00
28797;BME280;24974;54.444;18.560;2024-01-16T07:41:55;99781.75;;;-1.28;46.85
28797;BME280;24974;54.444;18.560;2024-01-16T07:44:26;99782.50;;;-1.32;46.70
28797;BME280;24974;54.444;18.560;2024-01-16T07:46:56;99785.44;;;-1.07;46.13
28797;BME280;24974;54.444;18.560;2024-01-16T07:49:27;99798.63;;;-0.83;47.08
28797;BME280;24974;54.444;18.560;2024-01-16T07:51:58;99790.47;;;-0.89;46.21
28797;BME280;24974;54.444;18.560;2024-01-16T07:54:29;99799.81;;;-1.50;46.68
28797;BME280;24974;54.444;18.560;2024-01-16T07:57:01;99808.97;;;-1.02;45.69
28797;BME280;24974;54.444;18.560;2024-01-16T07:59:32;99816.28;;;-0.71;44.46
28797;BME280;24974;54.444;18.560;2024-01-16T08:02:03;99817.16;;;-0.92;45.05
28797;BME280;24974;54.444;18.560;2024-01-16T08:04:35;99817.44;;;-1.16;45.04
28797;BME280;24974;54.444;18.560;2024-01-16T08:07:06;99816.66;;;-1.38;45.70
28797;BME280;24974;54.444;18.560;2024-01-16T08:09:37;99823.19;;;-1.34;45.21
28797;BME280;24974;54.444;18.560;2024-01-16T08:12:08;99820.53;;;-0.48;44.65
28797;BME280;24974;54.444;18.560;2024-01-16T08:14:39;99825.19;;;-0.33;43.91
28797;BME280;24974;54.444;18.560;2024-01-16T08:17:10;99826.59;;;-0.31;44.43
28797;BME280;24974;54.444;18.560;2024-01-16T08:19:41;99827.63;;;-1.45;45.14
28797;BME280;24974;54.444;18.560;2024-01-16T08:22:12;99828.81;;;-0.87;45.14
28797;BME280;24974;54.444;18.560;2024-01-16T08:24:42;99829.91;;;-0.82;43.37
28797;BME280;24974;54.444;18.560;2024-01-16T08:27:13;99840.00;;;-1.49;45.22
28797;BME280;24974;54.444;18.560;2024-01-16T08:29:44;99843.88;;;-0.26;43.58
28797;BME280;24974;54.444;18.560;2024-01-16T08:32:16;99849.88;;;-0.19;42.46
28797;BME280;24974;54.444;18.560;2024-01-16T08:34:47;99857.22;;;-0.47;43.09
28797;BME280;24974;54.444;18.560;2024-01-16T08:37:18;99857.97;;;-0.19;43.10
28797;BME280;24974;54.444;18.560;2024-01-16T08:39:49;99861.72;;;-1.33;44.50
28797;BME280;24974;54.444;18.560;2024-01-16T08:42:19;99870.91;;;-0.86;44.56
28797;BME280;24974;54.444;18.560;2024-01-16T08:44:50;99878.31;;;-0.44;42.60
28797;BME280;24974;54.444;18.560;2024-01-16T08:47:21;99873.19;;;0.34;41.90
28797;BME280;24974;54.444;18.560;2024-01-16T08:49:52;99883.38;;;0.17;41.88
28797;BME280;24974;54.444;18.560;2024-01-16T08:52:23;99889.72;;;0.43;41.00
28797;BME280;24974;54.444;18.560;2024-01-16T08:54:54;99885.25;;;0.16;41.14
28797;BME280;24974;54.444;18.560;2024-01-16T08:57:25;99889.56;;;0.65;41.66
28797;BME280;24974;54.444;18.560;2024-01-16T08:59:56;99897.69;;;-0.20;41.68
28797;BME280;24974;54.444;18.560;2024-01-16T09:02:27;99892.59;;;0.26;41.12
28797;BME280;24974;54.444;18.560;2024-01-16T09:05:01;99895.63;;;-0.40;42.52
28797;BME280;24974;54.444;18.560;2024-01-16T09:07:32;99898.47;;;-0.19;42.32
28797;BME280;24974;54.444;18.560;2024-01-16T09:10:03;99907.38;;;-0.51;42.39
28797;BME280;24974;54.444;18.560;2024-01-16T09:12:34;99913.91;;;-0.47;42.66
28797;BME280;24974;54.444;18.560;2024-01-16T09:15:05;99913.03;;;-0.52;43.42
28797;BME280;24974;54.444;18.560;2024-01-16T09:17:36;99914.16;;;0.63;41.48
28797;BME280;24974;54.444;18.560;2024-01-16T09:20:08;99919.28;;;1.32;40.40
28797;BME280;24974;54.444;18.560;2024-01-16T09:22:39;99919.97;;;0.35;41.60
28797;BME280;24974;54.444;18.560;2024-01-16T09:25:10;99919.28;;;0.60;42.61
28797;BME280;24974;54.444;18.560;2024-01-16T09:27:41;99926.63;;;0.22;42.09
28797;BME280;24974;54.444;18.560;2024-01-16T09:30:12;99929.56;;;1.35;40.04
28797;BME280;24974;54.444;18.560;2024-01-16T09:32:43;99926.72;;;0.84;41.72
28797;BME280;24974;54.444;18.560;2024-01-16T09:35:14;99923.19;;;0.84;41.83
28797;BME280;24974;54.444;18.560;2024-01-16T09:37:45;99935.97;;;1.04;41.93
28797;BME280;24974;54.444;18.560;2024-01-16T09:40:16;99927.91;;;1.14;41.02
28797;BME280;24974;54.444;18.560;2024-01-16T09:42:47;99930.28;;;0.48;41.48
28797;BME280;24974;54.444;18.560;2024-01-16T09:45:21;99941.19;;;0.21;42.73
28797;BME280;24974;54.444;18.560;2024-01-16T09:47:53;99941.56;;;-0.03;42.26
28797;BME280;24974;54.444;18.560;2024-01-16T09:50:23;99940.06;;;0.54;42.15
28797;BME280;24974;54.444;18.560;2024-01-16T09:52:54;99942.41;;;0.82;41.28
28797;BME280;24974;54.444;18.560;2024-01-16T09:55:25;99945.41;;;0.96;40.95
28797;BME280;24974;54.444;18.560;2024-01-16T09:57:57;99955.44;;;1.01;41.62
28797;BME280;24974;54.444;18.560;2024-01-16T10:00:29;99956.88;;;1.19;40.77
28797;BME280;24974;54.444;18.560;2024-01-16T10:03:01;99969.78;;;0.12;42.43
28797;BME280;24974;54.444;18.560;2024-01-16T10:05:33;99972.06;;;0.67;41.83
28797;BME280;24974;54.444;18.560;2024-01-16T10:08:04;99977.81;;;0.07;42.59
28797;BME280;24974;54.444;18.560;2024-01-16T10:10:35;99982.41;;;0.80;41.68
28797;BME280;24974;54.444;18.560;2024-01-16T10:13:06;99982.59;;;0.26;42.46
28797;BME280;24974;54.444;18.560;2024-01-16T10:15:38;99992.81;;;-0.13;43.29
28797;BME280;24974;54.444;18.560;2024-01-16T10:20:55;99994.38;;;0.15;43.24
28797;BME280;24974;54.444;18.560;2024-01-16T10:23:30;99992.63;;;0.31;42.94
28797;BME280;24974;54.444;18.560;2024-01-16T10:26:10;99997.41;;;-0.08;43.13
28797;BME280;24974;54.444;18.560;2024-01-16T10:28:42;99994.72;;;0.24;42.47
28797;BME280;24974;54.444;18.560;2024-01-16T10:31:13;99993.88;;;0.55;42.09
28797;BME280;24974;54.444;18.560;2024-01-16T10:33:47;99993.81;;;1.55;40.68
28797;BME280;24974;54.444;18.560;2024-01-16T10:36:18;100003.53;;;1.51;41.18
28797;BME280;24974;54.444;18.560;2024-01-16T10:38:51;100011.81;;;0.72;42.55
28797;BME280;24974;54.444;18.560;2024-01-16T10:41:28;100007.16;;;1.92;40.56
28797;BME280;24974;54.444;18.560;2024-01-16T10:44:06;100018.75;;;1.62;41.22
28797;BME280;24974;54.444;18.560;2024-01-16T10:46:40;100020.66;;;0.57;42.08
28797;BME280;24974;54.444;18.560;2024-01-16T10:49:11;100014.78;;;1.13;41.27
28797;BME280;24974;54.444;18.560;2024-01-16T10:51:43;100019.66;;;1.16;40.86
28797;BME280;24974;54.444;18.560;2024-01-16T10:54:16;100027.66;;;0.90;41.05
28797;BME280;24974;54.444;18.560;2024-01-16T10:56:47;100031.03;;;2.06;39.87
28797;BME280;24974;54.444;18.560;2024-01-16T10:59:31;100039.84;;;0.55;42.46
28797;BME280;24974;54.444;18.560;2024-01-16T11:02:07;100044.88;;;1.26;41.29
28797;BME280;24974;54.444;18.560;2024-01-16T11:04:43;100039.59;;;0.57;41.86
28797;BME280;24974;54.444;18.560;2024-01-16T11:07:14;100056.47;;;0.37;42.17
28797;BME280;24974;54.444;18.560;2024-01-16T11:09:46;100037.66;;;0.52;38.85
28797;BME280;24974;54.444;18.560;2024-01-16T11:12:20;100047.38;;;-0.11;40.82
28797;BME280;24974;54.444;18.560;2024-01-16T11:14:53;100045.84;;;0.63;39.71
28797;BME280;24974;54.444;18.560;2024-01-16T11:17:24;100042.63;;;0.02;40.16
28797;BME280;24974;54.444;18.560;2024-01-16T11:19:57;100048.84;;;1.08;39.05
28797;BME280;24974;54.444;18.560;2024-01-16T11:22:28;100055.50;;;1.38;37.90
28797;BME280;24974;54.444;18.560;2024-01-16T11:25:15;100060.94;;;1.48;38.83
28797;BME280;24974;54.444;18.560;2024-01-16T11:27:46;100064.09;;;0.45;38.42
28797;BME280;24974;54.444;18.560;2024-01-16T11:30:30;100063.22;;;0.35;38.70
28797;BME280;24974;54.444;18.560;2024-01-16T11:33:04;100073.97;;;0.62;39.34
28797;BME280;24974;54.444;18.560;2024-01-16T11:35:36;100078.81;;;0.60;39.31
28797;BME280;24974;54.444;18.560;2024-01-16T11:38:13;100078.16;;;2.00;37.05
28797;BME280;24974;54.444;18.560;2024-01-16T11:40:46;100084.31;;;1.75;37.43
28797;BME280;24974;54.444;18.560;2024-01-16T11:46:07;100090.75;;;1.01;38.38
28797;BME280;24974;54.444;18.560;2024-01-16T11:48:39;100098.44;;;1.77;35.98
28797;BME280;24974;54.444;18.560;2024-01-16T11:51:24;100090.34;;;1.87;36.21
28797;BME280;24974;54.444;18.560;2024-01-16T11:53:55;100096.16;;;2.41;36.98
28797;BME280;24974;54.444;18.560;2024-01-16T11:56:39;100094.31;;;1.64;36.75
28797;BME280;24974;54.444;18.560;2024-01-16T11:59:26;100095.06;;;2.73;36.08
28797;BME280;24974;54.444;18.560;2024-01-16T12:02:09;100104.53;;;2.30;35.78
28797;BME280;24974;54.444;18.560;2024-01-16T12:04:41;100099.09;;;3.11;35.27
28797;BME280;24974;54.444;18.560;2024-01-16T12:07:12;100096.59;;;3.40;33.61
28797;BME280;24974;54.444;18.560;2024-01-16T12:09:43;100100.50;;;2.83;35.09
28797;BME280;24974;54.444;18.560;2024-01-16T12:12:15;100106.13;;;1.37;36.39
28797;BME280;24974;54.444;18.560;2024-01-16T12:14:52;100107.56;;;0.71;38.50
28797;BME280;24974;54.444;18.560;2024-01-16T12:17:25;100103.88;;;1.92;36.93
28797;BME280;24974;54.444;18.560;2024-01-16T12:19:56;100107.16;;;1.99;37.51
28797;BME280;24974;54.444;18.560;2024-01-16T12:22:27;100110.25;;;2.69;35.17
28797;BME280;24974;54.444;18.560;2024-01-16T12:24:58;100111.50;;;1.32;37.20
28797;BME280;24974;54.444;18.560;2024-01-16T12:27:32;100120.47;;;3.48;35.61
28797;BME280;24974;54.444;18.560;2024-01-16T12:30:07;100125.41;;;6.52;30.21
28797;BME280;24974;54.444;18.560;2024-01-16T12:32:38;100124.25;;;5.96;30.41
28797;BME280;24974;54.444;18.560;2024-01-16T12:35:09;100125.88;;;7.05;27.98
28797;BME280;24974;54.444;18.560;2024-01-16T12:37:39;100137.13;;;6.33;28.93
28797;BME280;24974;54.444;18.560;2024-01-16T12:40:10;100131.16;;;5.41;31.19
28797;BME280;24974;54.444;18.560;2024-01-16T12:42:41;100138.75;;;7.05;28.56
28797;BME280;24974;54.444;18.560;2024-01-16T12:45:12;100145.94;;;6.06;29.50
28797;BME280;24974;54.444;18.560;2024-01-16T12:47:43;100152.38;;;5.68;30.82
28797;BME280;24974;54.444;18.560;2024-01-16T12:50:22;100150.69;;;2.75;32.24
28797;BME280;24974;54.444;18.560;2024-01-16T12:53:03;100152.84;;;4.59;31.47
28797;BME280;24974;54.444;18.560;2024-01-16T12:55:36;100159.47;;;7.06;28.13
28797;BME280;24974;54.444;18.560;2024-01-16T12:58:17;100157.97;;;8.42;27.20
28797;BME280;24974;54.444;18.560;2024-01-16T13:00:50;100159.69;;;6.39;28.10
28797;BME280;24974;54.444;18.560;2024-01-16T13:03:24;100162.16;;;5.45;29.85
28797;BME280;24974;54.444;18.560;2024-01-16T13:06:00;100168.16;;;3.90;31.87
28797;BME280;24974;54.444;18.560;2024-01-16T13:08:31;100160.19;;;6.03;29.69
28797;BME280;24974;54.444;18.560;2024-01-16T13:11:06;100175.94;;;5.00;29.98
28797;BME280;24974;54.444;18.560;2024-01-16T13:13:37;100161.94;;;5.94;28.86
28797;BME280;24974;54.444;18.560;2024-01-16T13:16:08;100175.41;;;5.27;29.65
28797;BME280;24974;54.444;18.560;2024-01-16T13:18:39;100164.75;;;7.35;27.84
28797;BME280;24974;54.444;18.560;2024-01-16T13:21:10;100176.94;;;4.31;30.15
28797;BME280;24974;54.444;18.560;2024-01-16T13:23:41;100174.22;;;5.10;29.54
28797;BME280;24974;54.444;18.560;2024-01-16T13:26:11;100185.28;;;6.00;28.10